Impacts METAR Board INFO
IDs:

KDCA - Washington/National, VA, US

Updated at: 1512 UTC 16 Jan 2018
Potential Impact None Slight Moderate High
Time16/03Z 16/04Z 16/05Z 16/06Z 16/07Z 16/08Z 16/09Z 16/10Z 16/11Z 16/12Z 16/13Z 16/14Z 16/15Z
VIS10 10 10 10 9 10 10 10 10 10 10 10 10
CIG11 9 9 8 10 10 9 10 9 9 9 8 10
CoverOVCOVCOVCOVCOVCOVCOVCOVCOVCOVCOVCOVCOVC
FltCatMVFRIFRIFRIFRMVFRMVFRIFRMVFRIFRIFRIFRIFRMVFR
WX--------------------------
WDir1401702100130160130170150130110160140
WSpd5 4 3 0 4 4 4 3 4 3 4 3 3
WGst-- -- -- -- -- -- -- -- -- -- -- -- --
Raw hourly METARs
KDCA 160252Z 14005KT 10SM OVC011 M01/M03 A3050 RMK AO2 SLP328 T10111033 50000
KDCA 160404Z 17004KT 10SM OVC009 M01/M03 A3051 RMK AO2 T10061028
KDCA 160452Z 21003KT 10SM OVC009 M01/M02 A3049 RMK AO2 SLP325 T10111022 400001078
KDCA 160552Z 00000KT 10SM OVC008 M01/M02 A3048 RMK AO2 SLP322 T10061022 11006 21011 58006
KDCA 160652Z 13004KT 9SM OVC010 M01/M02 A3046 RMK AO2 SLP314 T10061022
KDCA 160752Z 16004KT 10SM OVC010 M01/M02 A3047 RMK AO2 SLP317 T10061022
KDCA 160852Z 13004KT 10SM OVC009 M01/M02 A3046 RMK AO2 SLP315 T10061022 50000
KDCA 160952Z 17003KT 10SM OVC010 M01/M02 A3046 RMK AO2 SLP315 T10061022
KDCA 161052Z 15004KT 10SM OVC009 M01/M03 A3048 RMK AO2 SLP320 T10111028
KDCA 161159Z 13003KT 10SM OVC009 M01/M03 A3049 RMK AO2 T10111028
KDCA 161304Z 11004KT 10SM OVC009 M01/M03 A3049 RMK AO2 T10111028
KDCA 161352Z 16003KT 10SM OVC008 M01/M03 A3050 RMK AO2 SLP328 T10111028
KDCA 161452Z 14003KT 10SM OVC010 00/M03 A3050 RMK AO2 SLP328 T00001028 51004